»·PEaware :: N707WT KCRQ-KSEE

N707WT :: KCRQ-KSEE

FLIGHT INFORMATION

Flight Status: Arrived
Operator: Privately registered:
United States
More flights under this callsign
Pilot: Mark B. (9455)
Aircraft: CIRRUS SR-20
(SR20)
More flights by this aircraft type
Origin: KCRQ McClellan-Palomar
United States
Destination: KSEE Gillespie
United States
More flights between these airports :: More routes between these airports
Route: +MZB
File this flight plan on PilotEdge
Remarks: ZULU wx
Altitude:
(Current/Filed)
3,000ft
Speed:
(Current/Filed)
145kts
Departed: 03-Mar-19 01:59 PM
Arrived: 03-Mar-19 02:33 PM
Distance/Time
Traveled:
23nm/0:34
Distance/Time
To Go:
Arrived

Flight Plot

Page will automatically refresh every two minutes.


Map Options




Map Legend


Flown Route
Filed Route
Departure Airport
Arrival Airport
Navaid (VOR, NDB)
Fix

Horizontal Profiles

Position Reports

Time Latitude Longitude Heading Altitude Ground
Speed
03-Mar-19 13:39 33.127067 -117.279492 345 309ft 0kts
03-Mar-19 13:40 33.127067 -117.279492 345 309ft 0kts
03-Mar-19 13:41 33.127067 -117.279492 345 309ft 0kts
03-Mar-19 13:42 33.127067 -117.279492 345 309ft 0kts
03-Mar-19 13:43 33.127067 -117.279492 345 309ft 0kts
03-Mar-19 13:44 33.127067 -117.279492 345 309ft 0kts
03-Mar-19 13:45 33.127067 -117.279492 345 309ft 0kts
03-Mar-19 13:46 33.127067 -117.279492 345 309ft 0kts
03-Mar-19 13:48 33.127067 -117.279492 345 309ft 0kts
03-Mar-19 13:49 33.127067 -117.279492 345 309ft 0kts
03-Mar-19 13:50 33.127067 -117.279492 345 309ft 0kts
03-Mar-19 13:51 33.127067 -117.279492 345 309ft 0kts
03-Mar-19 13:52 33.127067 -117.279492 345 309ft 0kts
03-Mar-19 13:53 33.127067 -117.279492 345 309ft 0kts
03-Mar-19 13:54 33.127076 -117.279495 343 309ft 1kts
03-Mar-19 13:55 33.127559 -117.279179 88 310ft 10kts
03-Mar-19 13:56 33.128490 -117.273075 58 301ft 0kts
03-Mar-19 13:57 33.128490 -117.273075 58 301ft 0kts
03-Mar-19 13:58 33.129398 -117.273364 259 304ft 23kts
03-Mar-19 13:59 33.126904 -117.294821 259 1011ft 85kts
03-Mar-19 14:00 33.123960 -117.322633 263 2213ft 86kts
03-Mar-19 14:01 33.120974 -117.355705 265 2855ft 130kts
03-Mar-19 14:02 33.115470 -117.403331 261 2858ft 148kts
03-Mar-19 14:03 33.109334 -117.452818 258 2942ft 146kts
03-Mar-19 14:04 33.082561 -117.471209 136 3772ft 130kts
03-Mar-19 14:05 33.056169 -117.435995 140 3835ft 151kts
03-Mar-19 14:06 33.021285 -117.406732 146 3839ft 153kts
03-Mar-19 14:06 32.990314 -117.385342 151 3870ft 152kts
03-Mar-19 14:08 32.951398 -117.349142 124 3923ft 149kts
03-Mar-19 14:09 32.940592 -117.299968 100 3858ft 153kts
03-Mar-19 14:10 32.931978 -117.250037 101 3919ft 149kts
03-Mar-19 14:10 32.924801 -117.208299 103 3863ft 153kts
03-Mar-19 14:11 32.916273 -117.158137 101 3831ft 152kts
03-Mar-19 14:13 32.906249 -117.111325 103 3846ft 152kts
03-Mar-19 14:13 32.899317 -117.077298 103 3864ft 151kts
03-Mar-19 14:14 32.891779 -117.037416 103 3828ft 154kts
03-Mar-19 14:15 32.885147 -116.997805 101 3869ft 151kts
03-Mar-19 14:16 32.879197 -116.959914 101 4445ft 133kts
03-Mar-19 14:17 32.872986 -116.923742 97 5088ft 132kts
03-Mar-19 14:18 32.865736 -116.885341 103 5218ft 149kts
03-Mar-19 14:19 32.857409 -116.844513 103 5155ft 157kts
03-Mar-19 14:20 32.849976 -116.803290 102 5132ft 159kts
03-Mar-19 14:21 32.841022 -116.757367 100 5020ft 155kts
03-Mar-19 14:22 32.832268 -116.708837 100 5009ft 153kts
03-Mar-19 14:23 32.821717 -116.661542 116 5022ft 152kts
03-Mar-19 14:24 32.789733 -116.655060 226 5038ft 151kts
03-Mar-19 14:25 32.773224 -116.692580 243 5010ft 153kts
03-Mar-19 14:26 32.768910 -116.729989 302 5041ft 151kts
03-Mar-19 14:27 32.789174 -116.762758 294 4762ft 167kts
03-Mar-19 14:28 32.798476 -116.806754 281 4214ft 167kts
03-Mar-19 14:29 32.808006 -116.859336 282 2984ft 174kts
03-Mar-19 14:30 32.816413 -116.913744 284 2151ft 163kts
03-Mar-19 14:31 32.826294 -116.963860 279 557ft 138kts
03-Mar-19 14:32 32.828988 -116.981293 203 355ft 11kts
03-Mar-19 14:33 32.828745 -116.981398 196 355ft 0kts

Navigation Log

Ident Type
Flight plan parsing failed, navigation log unavailable